Time;durP1;ratioP1;P1;durP2;ratioP2;P2;SDS_P1;SDS_P2;PMS_P1;PMS_P2;Temp;Humidity;BMP_temperature;BMP_pressure;BME280_temperature;BME280_humidity;BME280_pressure;Samples;Min_cycle;Max_cycle;Signal;HPM_P1;HPM_P2
2021/10/17 00:01:53;;;;;;;25.50;11.30;;;12.50;60.00;;;;;;5053132;28;20191;-46
2021/10/17 00:04:19;;;;;;;39.27;11.07;;;12.50;60.00;;;;;;5052717;28;20708;-43
2021/10/17 00:06:44;;;;;;;14.30;9.80;;;12.50;60.00;;;;;;5052442;28;20258;-45
2021/10/17 00:09:10;;;;;;;38.70;11.60;;;12.40;60.70;;;;;;5052398;28;20569;-46
2021/10/17 00:11:35;;;;;;;22.23;9.80;;;12.40;60.20;;;;;;5052902;28;20272;-46
2021/10/17 00:14:01;;;;;;;36.53;10.20;;;12.30;60.40;;;;;;5050287;28;20188;-44
2021/10/17 00:16:26;;;;;;;35.47;11.87;;;12.20;60.80;;;;;;5052362;28;20199;-45
2021/10/17 00:18:52;;;;;;;40.00;12.23;;;12.20;60.90;;;;;;5052823;28;20225;-45
2021/10/17 00:21:18;;;;;;;30.97;12.10;;;12.10;61.10;;;;;;5052278;28;20582;-45
2021/10/17 00:23:43;;;;;;;67.23;11.60;;;12.10;61.50;;;;;;5052696;28;20192;-45
2021/10/17 00:26:09;;;;;;;17.40;9.60;;;11.90;61.50;;;;;;5051414;28;20189;-47
2021/10/17 00:28:34;;;;;;;21.43;9.67;;;11.90;62.20;;;;;;5052673;28;20193;-45
2021/10/17 00:31:00;;;;;;;47.30;12.30;;;11.90;62.20;;;;;;5051796;28;20612;-46
2021/10/17 00:33:25;;;;;;;29.90;11.07;;;11.90;62.10;;;;;;5052505;28;20226;-48
2021/10/17 00:35:52;;;;;;;16.73;9.93;;;11.90;61.90;;;;;;5051364;28;20188;-48
2021/10/17 00:38:18;;;;;;;17.37;10.10;;;11.90;62.90;;;;;;5052558;28;20267;-45
2021/10/17 00:40:44;;;;;;;39.40;11.60;;;;;;;;;;5049825;28;20570;-44
2021/10/17 00:43:09;;;;;;;10.27;9.20;;;11.80;61.40;;;;;;5052053;28;20236;-45
2021/10/17 00:45:35;;;;;;;29.07;10.60;;;11.70;62.40;;;;;;5051064;28;20864;-45
2021/10/17 00:48:00;;;;;;;14.00;9.37;;;11.70;62.30;;;;;;5052155;28;20220;-46
2021/10/17 00:50:27;;;;;;;12.40;9.30;;;11.80;62.10;;;;;;5051230;28;20232;-46
2021/10/17 00:52:53;;;;;;;38.67;11.60;;;11.80;62.40;;;;;;5052145;28;20188;-44
2021/10/17 00:55:20;;;;;;;33.33;10.90;;;11.90;62.30;;;;;;5050964;28;20481;-43
2021/10/17 00:57:46;;;;;;;43.57;10.50;;;11.90;62.20;;;;;;5050062;28;20200;-43
2021/10/17 01:00:13;;;;;;;21.10;8.90;;;11.80;62.50;;;;;;5051090;28;20529;-43
2021/10/17 01:02:39;;;;;;;86.10;13.57;;;11.70;63.60;;;;;;5052171;28;20480;-43
2021/10/17 01:05:11;;;;;;;32.00;11.23;;;11.60;63.20;;;;;;5050861;28;20419;-43
2021/10/17 01:07:37;;;;;;;13.10;10.10;;;11.40;63.70;;;;;;5050261;28;20819;-44
2021/10/17 01:10:03;;;;;;;25.10;10.83;;;11.30;64.30;;;;;;5051491;28;20423;-44
2021/10/17 01:12:29;;;;;;;98.47;12.90;;;11.40;64.40;;;;;;5051932;28;20192;-43
2021/10/17 01:14:55;;;;;;;60.30;17.33;;;11.60;64.30;;;;;;5050953;28;20875;-43
2021/10/17 01:17:20;;;;;;;26.37;15.33;;;11.30;64.10;;;;;;5051741;28;20535;-43
2021/10/17 01:19:47;;;;;;;32.33;14.40;;;11.40;64.90;;;;;;5051039;28;20664;-43
2021/10/17 01:22:14;;;;;;;12.67;10.30;;;11.40;64.70;;;;;;5051671;28;20390;-45
2021/10/17 01:24:40;;;;;;;25.67;11.40;;;11.40;64.80;;;;;;5050555;28;20907;-44
2021/10/17 01:27:05;;;;;;;43.27;10.77;;;11.40;64.80;;;;;;5051604;28;20573;-45
2021/10/17 01:29:31;;;;;;;61.13;11.60;;;11.00;65.00;;;;;;5050822;28;20555;-43
2021/10/17 01:31:56;;;;;;;49.83;10.77;;;10.90;65.70;;;;;;5051550;28;20230;-43
2021/10/17 01:34:24;;;;;;;27.27;10.30;;;10.60;66.70;;;;;;5049423;28;20721;-43
2021/10/17 01:36:51;;;;;;;11.57;9.90;;;10.80;66.70;;;;;;5051543;28;20285;-43
2021/10/17 01:39:19;;;;;;;30.23;10.70;;;10.90;66.20;;;;;;5050767;28;20426;-43
2021/10/17 01:41:45;;;;;;;20.63;10.70;;;11.20;65.70;;;;;;5051374;28;21044;-43
2021/10/17 01:44:14;;;;;;;31.40;9.57;;;11.10;64.90;;;;;;5050652;28;20533;-43
2021/10/17 01:46:40;;;;;;;33.63;10.37;;;11.20;64.80;;;;;;5050922;28;20532;-43
2021/10/17 01:49:07;;;;;;;28.97;11.00;;;11.20;64.30;;;;;;5050953;28;20462;-43
2021/10/17 01:51:33;;;;;;;15.03;9.43;;;11.10;64.50;;;;;;5051660;28;20198;-43
2021/10/17 01:54:00;;;;;;;14.40;8.07;;;11.10;64.60;;;;;;5054960;28;20439;-43
2021/10/17 01:56:25;;;;;;;28.17;9.23;;;10.90;64.30;;;;;;5054764;28;20828;-44
2021/10/17 01:58:51;;;;;;;11.43;9.17;;;10.80;64.80;;;;;;5052794;28;20470;-44
2021/10/17 02:01:17;;;;;;;51.70;9.13;;;10.60;65.30;;;;;;5053885;28;20637;-43
2021/10/17 02:03:43;;;;;;;73.57;10.53;;;10.50;65.60;;;;;;5055290;28;20222;-43
2021/10/17 02:06:09;;;;;;;66.73;11.50;;;10.50;65.90;;;;;;5054524;28;20197;-43
2021/10/17 02:08:34;;;;;;;10.80;9.50;;;10.40;65.80;;;;;;5054825;28;20431;-45
2021/10/17 02:11:00;;;;;;;27.07;9.20;;;10.30;66.40;;;;;;5054606;28;20231;-43
2021/10/17 02:13:26;;;;;;;74.10;11.80;;;10.20;66.60;;;;;;5055177;28;20215;-44
2021/10/17 02:15:52;;;;;;;37.10;11.17;;;10.00;67.20;;;;;;5054376;28;20196;-43
2021/10/17 02:18:17;;;;;;;65.03;11.70;;;10.10;68.30;;;;;;5054874;28;20795;-44
2021/10/17 02:20:43;;;;;;;45.10;11.60;;;10.20;68.30;;;;;;5054158;28;20223;-45
2021/10/17 02:23:09;;;;;;;33.63;10.40;;;10.00;68.70;;;;;;5055006;28;20199;-43
2021/10/17 02:25:34;;;;;;;38.97;11.10;;;10.20;68.60;;;;;;5052275;28;20204;-43
2021/10/17 02:28:00;;;;;;;43.07;10.10;;;10.40;67.90;;;;;;5054648;28;20288;-43
2021/10/17 02:30:26;;;;;;;60.67;11.87;;;10.50;67.30;;;;;;5054341;28;20261;-44
2021/10/17 02:32:52;;;;;;;32.13;10.30;;;10.50;66.40;;;;;;5054989;28;20427;-43
2021/10/17 02:35:18;;;;;;;12.90;11.47;;;10.30;66.90;;;;;;5054120;28;20477;-43
2021/10/17 02:37:44;;;;;;;39.20;11.50;;;10.40;67.30;;;;;;5054552;28;20196;-43
2021/10/17 02:40:10;;;;;;;22.60;10.57;;;10.40;67.10;;;;;;5054012;28;20370;-43
2021/10/17 02:42:36;;;;;;;23.33;9.83;;;10.40;66.80;;;;;;5054626;28;20973;-43
2021/10/17 02:45:03;;;;;;;53.43;10.80;;;10.50;67.00;;;;;;5053791;28;20196;-43
2021/10/17 02:47:28;;;;;;;18.17;9.80;;;10.40;66.30;;;;;;5054299;28;20199;-43
2021/10/17 02:49:54;;;;;;;35.43;10.00;;;10.60;66.30;;;;;;5053712;28;20474;-44
2021/10/17 02:52:19;;;;;;;19.97;10.10;;;10.90;65.90;;;;;;5052739;28;20245;-43
2021/10/17 02:54:45;;;;;;;37.63;10.37;;;10.80;65.80;;;;;;5053513;28;20272;-44
2021/10/17 02:57:10;;;;;;;13.27;10.50;;;10.80;65.20;;;;;;5052096;28;20189;-43
2021/10/17 02:59:36;;;;;;;15.30;9.90;;;10.80;65.10;;;;;;5053582;28;20189;-43
2021/10/17 03:02:02;;;;;;;28.23;9.77;;;10.90;65.00;;;;;;5054172;28;20193;-44
2021/10/17 03:04:28;;;;;;;11.83;10.37;;;10.90;64.60;;;;;;5052319;28;20197;-44
2021/10/17 03:06:53;;;;;;;12.40;9.80;;;10.80;64.90;;;;;;5053844;28;20442;-43
2021/10/17 03:09:19;;;;;;;12.20;9.40;;;10.70;64.70;;;;;;5053999;28;20196;-45
2021/10/17 03:11:45;;;;;;;31.37;10.40;;;10.80;64.90;;;;;;5053964;28;20208;-45
2021/10/17 03:14:10;;;;;;;18.57;10.23;;;10.60;64.20;;;;;;5053565;28;20700;-45
2021/10/17 03:16:36;;;;;;;16.77;9.17;;;10.50;65.50;;;;;;5053303;28;20196;-44
2021/10/17 03:19:02;;;;;;;23.23;11.00;;;10.60;65.60;;;;;;5051922;28;20199;-43
2021/10/17 03:21:28;;;;;;;17.03;10.07;;;10.40;65.50;;;;;;5053891;28;20319;-48
2021/10/17 03:23:53;;;;;;;21.70;9.80;;;10.30;66.40;;;;;;5053573;28;20435;-44
2021/10/17 03:26:19;;;;;;;24.90;10.40;;;10.40;66.40;;;;;;5053086;28;20250;-45
2021/10/17 03:28:45;;;;;;;12.70;10.10;;;10.30;65.80;;;;;;5054001;28;20268;-44
2021/10/17 03:31:11;;;;;;;19.57;10.00;;;10.20;65.90;;;;;;5052938;28;20193;-43
2021/10/17 03:33:36;;;;;;;25.97;10.07;;;10.20;66.40;;;;;;5053652;28;20419;-43
2021/10/17 03:36:02;;;;;;;11.63;9.30;;;10.30;66.20;;;;;;5052399;28;20552;-43
2021/10/17 03:38:28;;;;;;;25.67;14.20;;;10.40;65.70;;;;;;5053636;28;20251;-43
2021/10/17 03:40:54;;;;;;;25.67;16.77;;;10.30;65.40;;;;;;5053146;28;20478;-43
2021/10/17 03:43:19;;;;;;;29.33;16.37;;;10.30;65.50;;;;;;5053662;28;20195;-43
2021/10/17 03:45:45;;;;;;;18.10;12.00;;;10.50;65.60;;;;;;5050858;28;20221;-43
2021/10/17 03:48:11;;;;;;;11.77;9.97;;;10.50;64.70;;;;;;5053315;28;20719;-43
2021/10/17 03:50:36;;;;;;;11.70;10.50;;;10.60;65.50;;;;;;5052654;28;20550;-43
2021/10/17 03:53:02;;;;;;;9.60;8.23;;;10.70;64.00;;;;;;5053221;28;20279;-44
2021/10/17 03:55:28;;;;;;;16.73;9.43;;;10.70;63.60;;;;;;5052252;28;20199;-44
2021/10/17 03:57:54;;;;;;;10.87;9.77;;;10.80;63.20;;;;;;5051505;28;20208;-43
2021/10/17 04:00:19;;;;;;;9.23;8.27;;;10.60;63.50;;;;;;5052639;28;20487;-43
2021/10/17 04:02:45;;;;;;;13.10;8.90;;;10.50;63.60;;;;;;5053671;28;20555;-44
2021/10/17 04:05:11;;;;;;;11.97;9.47;;;10.40;64.40;;;;;;5051815;28;20234;-44
2021/10/17 04:07:37;;;;;;;11.63;9.70;;;10.50;64.30;;;;;;5053003;28;20697;-44
2021/10/17 04:10:04;;;;;;;9.60;8.63;;;10.50;64.40;;;;;;5052580;28;20814;-44
2021/10/17 04:12:30;;;;;;;12.40;10.80;;;10.60;63.90;;;;;;5051133;28;20456;-45
2021/10/17 04:14:56;;;;;;;9.20;8.27;;;10.40;64.20;;;;;;5051595;28;20937;-47
2021/10/17 04:17:23;;;;;;;13.50;8.93;;;9.90;66.80;;;;;;5052888;28;20912;-47
2021/10/17 04:19:49;;;;;;;10.70;9.40;;;9.90;67.80;;;;;;5052083;28;20212;-44
2021/10/17 04:22:15;;;;;;;10.90;9.80;;;10.00;66.60;;;;;;5052421;28;20446;-43
2021/10/17 04:24:40;;;;;;;10.33;8.93;;;10.30;66.00;;;;;;5051650;28;20274;-44
2021/10/17 04:27:08;;;;;;;12.27;9.67;;;9.90;67.70;;;;;;5052721;28;20200;-43
2021/10/17 04:29:35;;;;;;;10.23;9.17;;;10.20;66.60;;;;;;5051772;28;20289;-43
2021/10/17 04:32:00;;;;;;;12.40;10.90;;;10.20;65.90;;;;;;5052529;28;20486;-44
2021/10/17 04:34:26;;;;;;;14.00;9.93;;;10.30;66.10;;;;;;5051501;28;20451;-45
2021/10/17 04:36:51;;;;;;;11.90;10.53;;;10.40;65.60;;;;;;5052704;28;20198;-46
2021/10/17 04:39:17;;;;;;;12.73;9.40;;;10.50;65.20;;;;;;5050088;28;20200;-44
2021/10/17 04:41:43;;;;;;;10.10;9.10;;;10.40;64.40;;;;;;5052218;28;20232;-43
2021/10/17 04:44:09;;;;;;;13.13;9.40;;;10.30;65.00;;;;;;5051523;28;20423;-43
2021/10/17 04:46:34;;;;;;;11.43;10.23;;;10.40;65.10;;;;;;5051889;28;20212;-43
2021/10/17 04:49:00;;;;;;;19.67;9.73;;;10.40;64.70;;;;;;5051367;28;20240;-47
2021/10/17 04:51:25;;;;;;;9.90;8.90;;;10.40;64.90;;;;;;5052131;28;20191;-46
2021/10/17 04:53:51;;;;;;;13.93;9.60;;;10.30;64.80;;;;;;5052224;28;20597;-43
2021/10/17 04:56:17;;;;;;;9.40;8.40;;;10.30;65.00;;;;;;5051287;28;20192;-43
2021/10/17 04:58:42;;;;;;;10.80;9.17;;;10.40;65.00;;;;;;5049775;28;20624;-43
2021/10/17 05:01:09;;;;;;;11.33;9.93;;;10.50;64.40;;;;;;5051231;28;20250;-46
2021/10/17 05:03:35;;;;;;;10.67;9.10;;;10.70;63.90;;;;;;5051974;28;20192;-43
2021/10/17 05:06:00;;;;;;;11.33;9.27;;;10.70;63.40;;;;;;5049468;28;20433;-45
2021/10/17 05:08:26;;;;;;;15.07;11.73;;;10.80;63.10;;;;;;5051632;28;20424;-46
2021/10/17 05:10:52;;;;;;;13.63;10.90;;;10.90;62.60;;;;;;5051264;28;20615;-43
2021/10/17 05:13:17;;;;;;;12.13;10.83;;;10.90;62.60;;;;;;5051824;28;21284;-43
2021/10/17 05:15:43;;;;;;;11.60;9.50;;;11.00;62.50;;;;;;5050885;28;20196;-44
2021/10/17 05:18:08;;;;;;;11.77;10.40;;;11.10;62.20;;;;;;5051703;28;20195;-43
2021/10/17 05:20:34;;;;;;;11.97;10.37;;;11.20;61.80;;;;;;5050961;28;20565;-44
2021/10/17 05:23:00;;;;;;;12.00;10.50;;;11.20;61.30;;;;;;5051610;28;20233;-46
2021/10/17 05:25:25;;;;;;;12.00;10.60;;;10.90;61.90;;;;;;5050725;28;20291;-46
2021/10/17 05:27:51;;;;;;;13.20;11.53;;;10.80;62.90;;;;;;5050984;28;20193;-44
2021/10/17 05:30:17;;;;;;;11.50;10.30;;;10.80;62.80;;;;;;5050953;28;20690;-45
2021/10/17 05:32:42;;;;;;;12.63;10.07;;;10.60;63.00;;;;;;5049929;28;20695;-45
2021/10/17 05:35:08;;;;;;;12.40;9.90;;;10.20;63.90;;;;;;5050640;28;20242;-44
2021/10/17 05:37:33;;;;;;;10.37;9.37;;;10.20;64.60;;;;;;5051387;28;20277;-45
2021/10/17 05:39:59;;;;;;;18.30;9.60;;;10.40;64.30;;;;;;5051151;28;20582;-43
2021/10/17 05:42:25;;;;;;;10.60;9.53;;;10.40;63.40;;;;;;5051445;28;20184;-43
2021/10/17 05:44:50;;;;;;;10.63;9.50;;;10.40;63.90;;;;;;5050663;28;20603;-47
2021/10/17 05:47:16;;;;;;;10.37;9.27;;;10.60;63.50;;;;;;5051143;28;20979;-47
2021/10/17 05:49:41;;;;;;;11.13;9.80;;;10.70;63.20;;;;;;5050741;28;20240;-43
2021/10/17 05:52:07;;;;;;;10.07;9.07;;;10.70;62.90;;;;;;5051225;28;20197;-43
2021/10/17 05:54:33;;;;;;;11.20;9.33;;;10.70;62.60;;;;;;5050559;28;20605;-43
2021/10/17 05:56:58;;;;;;;9.30;8.33;;;10.80;62.80;;;;;;5048686;28;20196;-45
2021/10/17 05:59:24;;;;;;;16.03;11.70;;;10.90;62.50;;;;;;5049495;28;20184;-45
2021/10/17 06:01:49;;;;;;;12.17;10.10;;;11.00;62.10;;;;;;5051194;28;20223;-44
2021/10/17 06:04:15;;;;;;;11.50;9.53;;;11.10;61.80;;;;;;5050209;28;20196;-43
2021/10/17 06:06:41;;;;;;;11.43;9.40;;;11.10;61.40;;;;;;5051063;28;20192;-47
2021/10/17 06:09:08;;;;;;;11.77;8.90;;;11.10;61.40;;;;;;5050696;28;20193;-44
2021/10/17 06:11:34;;;;;;;11.33;9.63;;;11.10;61.50;;;;;;5051261;28;20940;-44
2021/10/17 06:14:00;;;;;;;10.33;9.33;;;11.20;61.40;;;;;;5050536;28;20435;-45
2021/10/17 06:16:26;;;;;;;10.60;9.20;;;11.30;61.10;;;;;;5050520;28;20423;-45
2021/10/17 06:18:51;;;;;;;10.17;9.17;;;11.20;61.10;;;;;;5051415;28;20200;-45
2021/10/17 06:21:17;;;;;;;10.67;9.60;;;11.20;61.60;;;;;;5050430;28;20229;-47
2021/10/17 06:23:42;;;;;;;12.70;9.23;;;11.30;61.30;;;;;;5049574;28;20199;-43
2021/10/17 06:26:08;;;;;;;10.93;9.53;;;11.20;60.80;;;;;;5049859;28;20195;-48
2021/10/17 06:28:33;;;;;;;11.43;9.40;;;10.90;61.60;;;;;;5051032;28;20212;-44
2021/10/17 06:30:59;;;;;;;11.17;9.90;;;11.00;62.40;;;;;;5050323;28;20246;-46
2021/10/17 06:33:24;;;;;;;11.70;9.23;;;11.10;62.10;;;;;;5051160;28;20210;-44
2021/10/17 06:35:50;;;;;;;9.73;8.47;;;11.00;61.40;;;;;;5049964;28;20185;-44
2021/10/17 06:38:16;;;;;;;10.63;9.40;;;11.10;61.70;;;;;;5052513;28;20193;-43
2021/10/17 06:40:41;;;;;;;10.47;9.07;;;11.30;62.00;;;;;;5053932;28;20668;-44
2021/10/17 06:43:07;;;;;;;10.20;8.80;;;11.40;61.60;;;;;;5054587;28;20199;-47
2021/10/17 06:45:33;;;;;;;10.67;9.17;;;11.50;61.40;;;;;;5053340;28;20661;-43
2021/10/17 06:47:59;;;;;;;11.70;10.40;;;11.50;61.00;;;;;;5054487;28;20196;-43
2021/10/17 06:50:24;;;;;;;12.00;9.90;;;11.70;60.90;;;;;;5051841;28;20953;-47
2021/10/17 06:52:50;;;;;;;9.97;8.97;;;11.70;60.50;;;;;;5054677;28;20561;-43
2021/10/17 06:55:16;;;;;;;10.07;8.90;;;11.80;60.40;;;;;;5053329;28;20271;-44
2021/10/17 06:57:44;;;;;;;11.13;9.70;;;11.80;60.30;;;;;;5051632;28;20514;-44
2021/10/17 07:00:10;;;;;;;12.03;9.60;;;11.90;60.20;;;;;;5053646;28;20508;-43
2021/10/17 07:02:36;;;;;;;11.53;10.37;;;11.90;60.00;;;;;;5054402;28;20505;-43
2021/10/17 07:05:01;;;;;;;10.40;9.30;;;12.00;60.20;;;;;;5053207;28;20433;-47
2021/10/17 07:07:27;;;;;;;9.93;8.93;;;12.00;60.20;;;;;;5053778;28;20196;-48
2021/10/17 07:09:52;;;;;;;10.67;9.67;;;12.10;60.30;;;;;;5053540;28;20200;-48
2021/10/17 07:12:18;;;;;;;10.80;9.70;;;12.20;60.20;;;;;;5054114;28;20196;-44
2021/10/17 07:14:44;;;;;;;11.33;9.27;;;12.20;60.00;;;;;;5053019;28;20648;-44
2021/10/17 07:17:09;;;;;;;10.30;9.20;;;12.20;60.00;;;;;;5052641;28;20196;-48
2021/10/17 07:19:35;;;;;;;11.03;9.00;;;12.30;60.10;;;;;;5053132;28;20250;-45
2021/10/17 07:22:01;;;;;;;10.97;9.87;;;12.40;60.00;;;;;;5054134;28;20196;-48
2021/10/17 07:24:26;;;;;;;10.37;9.23;;;12.40;59.70;;;;;;5052894;28;20593;-44
2021/10/17 07:26:52;;;;;;;10.83;9.77;;;12.50;59.80;;;;;;5053800;28;20242;-45
2021/10/17 07:29:17;;;;;;;10.37;9.37;;;12.60;59.80;;;;;;5053218;28;20224;-47
2021/10/17 07:31:43;;;;;;;10.80;9.70;;;12.60;59.90;;;;;;5053657;28;20205;-46
2021/10/17 07:34:09;;;;;;;10.93;9.73;;;12.60;60.00;;;;;;5053039;28;20196;-46
2021/10/17 07:36:34;;;;;;;11.13;9.93;;;12.50;60.20;;;;;;5053320;28;20631;-46
2021/10/17 07:39:00;;;;;;;10.23;9.23;;;12.60;60.20;;;;;;5052956;28;20196;-43
2021/10/17 07:41:25;;;;;;;10.73;9.57;;;12.70;60.10;;;;;;5053314;28;20228;-43
2021/10/17 07:43:51;;;;;;;11.90;10.70;;;12.70;60.60;;;;;;5051902;28;20888;-46
2021/10/17 07:46:16;;;;;;;10.93;9.50;;;12.80;60.60;;;;;;5052823;28;20193;-45
2021/10/17 07:48:42;;;;;;;11.13;9.13;;;12.80;59.90;;;;;;5053132;28;20240;-44
2021/10/17 07:51:08;;;;;;;10.57;9.57;;;12.90;60.00;;;;;;5052157;28;20641;-43
2021/10/17 07:53:34;;;;;;;12.20;10.77;;;13.00;60.00;;;;;;5053348;28;20659;-44
2021/10/17 07:56:00;;;;;;;11.37;10.13;;;13.10;59.80;;;;;;5052239;28;20494;-45
2021/10/17 07:58:26;;;;;;;11.60;10.40;;;13.10;59.80;;;;;;5050858;28;20189;-45
2021/10/17 08:00:52;;;;;;;13.70;12.13;;;13.00;59.80;;;;;;5052812;28;20961;-44
2021/10/17 08:03:17;;;;;;;15.60;11.10;;;13.10;59.90;;;;;;5053395;28;20204;-44
2021/10/17 08:05:43;;;;;;;15.83;11.63;;;13.10;60.50;;;;;;5051993;28;20439;-45
2021/10/17 08:08:09;;;;;;;15.17;12.57;;;13.10;60.50;;;;;;5053005;28;20667;-43
2021/10/17 08:10:35;;;;;;;13.10;11.13;;;13.10;60.50;;;;;;5051077;28;20212;-44
2021/10/17 08:13:02;;;;;;;16.20;12.50;;;13.20;60.50;;;;;;5052822;28;20226;-44
2021/10/17 08:15:28;;;;;;;13.47;12.10;;;13.30;60.30;;;;;;5051925;28;20427;-44
2021/10/17 08:17:54;;;;;;;14.60;12.37;;;13.30;60.80;;;;;;5052831;28;20484;-45
2021/10/17 08:20:21;;;;;;;14.63;13.13;;;13.40;60.50;;;;;;5052417;28;20467;-45
2021/10/17 08:22:47;;;;;;;14.13;12.63;;;13.50;60.60;;;;;;5052480;28;20509;-45
2021/10/17 08:25:13;;;;;;;15.40;13.17;;;13.50;60.40;;;;;;5051742;28;20497;-43
2021/10/17 08:27:41;;;;;;;17.10;14.13;;;13.60;60.60;;;;;;5052511;28;20458;-43
2021/10/17 08:30:08;;;;;;;13.50;11.77;;;13.60;60.20;;;;;;5052193;28;20427;-44
2021/10/17 08:32:34;;;;;;;15.37;13.57;;;13.70;60.00;;;;;;5052283;28;20518;-44
2021/10/17 08:34:59;;;;;;;15.13;13.53;;;13.80;60.00;;;;;;5052018;28;20526;-43
2021/10/17 08:37:25;;;;;;;19.53;14.27;;;13.80;59.60;;;;;;5048042;28;20204;-49
2021/10/17 08:39:52;;;;;;;18.43;14.20;;;13.90;59.80;;;;;;5046794;28;20197;-48
2021/10/17 08:42:18;;;;;;;16.50;14.10;;;13.90;59.60;;;;;;5050449;28;20522;-46
2021/10/17 08:44:44;;;;;;;15.97;14.37;;;14.00;59.60;;;;;;5050446;28;20439;-45
2021/10/17 08:47:12;;;;;;;18.00;13.77;;;14.10;59.60;;;;;;5051862;28;20442;-48
2021/10/17 08:49:38;;;;;;;15.87;13.73;;;14.10;59.50;;;;;;5044807;28;20760;-45
2021/10/17 08:52:04;;;;;;;16.50;13.10;;;14.10;59.30;;;;;;5049213;28;20510;-45
2021/10/17 08:54:30;;;;;;;15.77;13.40;;;14.10;59.70;;;;;;5048625;28;20199;-47
2021/10/17 08:56:55;;;;;;;15.70;13.23;;;14.10;59.70;;;;;;5050922;28;20858;-45
2021/10/17 08:59:21;;;;;;;17.47;14.43;;;14.20;59.50;;;;;;5048614;28;20188;-45
2021/10/17 09:01:47;;;;;;;16.80;15.10;;;14.20;59.40;;;;;;5050657;28;20231;-48
2021/10/17 09:04:15;;;;;;;16.00;14.30;;;14.20;59.30;;;;;;5049036;28;20307;-45
2021/10/17 09:06:40;;;;;;;15.07;13.40;;;14.10;59.50;;;;;;5051305;28;20277;-45
2021/10/17 09:09:10;;;;;;;15.23;13.63;;;14.20;59.70;;;;;;5044432;28;20525;-46
2021/10/17 09:11:36;;;;;;;19.97;15.97;;;14.30;59.60;;;;;;5044576;28;20265;-46
2021/10/17 09:14:07;;;;;;;19.00;17.00;;;14.40;59.40;;;;;;5048469;28;20450;-50
2021/10/17 09:16:38;;;;;;;17.23;15.37;;;14.40;59.30;;;;;;5047196;28;20435;-45
2021/10/17 09:19:11;;;;;;;21.07;15.87;;;14.40;59.20;;;;;;5050191;28;20485;-46
2021/10/17 09:21:51;;;;;;;17.77;15.87;;;14.50;59.30;;;;;;5048811;28;20487;-49
2021/10/17 09:24:25;;;;;;;20.00;16.67;;;14.60;59.20;;;;;;5048518;28;20542;-46
2021/10/17 09:27:09;;;;;;;18.80;15.90;;;14.70;59.00;;;;;;5042939;28;20951;-46
2021/10/17 09:29:35;;;;;;;19.10;17.10;;;14.70;59.10;;;;;;5049114;28;20479;-45
2021/10/17 09:32:08;;;;;;;18.07;16.17;;;14.80;59.50;;;;;;5047605;28;20441;-47
2021/10/17 09:34:34;;;;;;;21.37;17.37;;;14.80;59.50;;;;;;5047093;28;20450;-49
2021/10/17 09:37:06;;;;;;;24.27;18.60;;;14.80;59.80;;;;;;5050080;28;20431;-47
2021/10/17 09:39:36;;;;;;;21.97;18.17;;;14.70;59.60;;;;;;5048909;28;20200;-44
2021/10/17 09:42:02;;;;;;;20.83;18.53;;;14.80;59.30;;;;;;5049921;28;20478;-46
2021/10/17 09:44:41;;;;;;;22.30;17.80;;;14.70;59.40;;;;;;5049542;28;20976;-46
2021/10/17 09:47:07;;;;;;;23.50;19.80;;;14.70;59.20;;;;;;5050688;28;20438;-45
2021/10/17 09:49:33;;;;;;;20.63;18.40;;;14.60;59.50;;;;;;5049932;28;20465;-45
2021/10/17 09:52:20;;;;;;;22.13;19.60;;;14.70;59.50;;;;;;5050708;28;20423;-45
2021/10/17 09:54:48;;;;;;;21.80;19.20;;;14.90;59.50;;;;;;5044438;28;20212;-44
2021/10/17 09:57:14;;;;;;;24.17;18.80;;;14.80;59.40;;;;;;5050323;28;20470;-45
2021/10/17 09:59:40;;;;;;;22.53;19.20;;;14.80;59.30;;;;;;5042122;28;20435;-48
2021/10/17 10:02:10;;;;;;;24.33;18.63;;;14.90;59.40;;;;;;5049621;28;20204;-46
2021/10/17 10:04:40;;;;;;;21.90;19.47;;;14.70;59.70;;;;;;5049731;28;20193;-45
2021/10/17 10:07:07;;;;;;;21.43;18.70;;;14.60;60.00;;;;;;5050654;28;20446;-46
2021/10/17 10:09:34;;;;;;;23.37;20.00;;;14.70;59.90;;;;;;5049404;28;20442;-45
2021/10/17 10:12:03;;;;;;;21.13;18.43;;;14.80;59.80;;;;;;5050073;28;20957;-47
2021/10/17 10:14:30;;;;;;;22.20;19.60;;;15.00;59.50;;;;;;5050969;28;20527;-46
2021/10/17 10:16:58;;;;;;;19.50;17.50;;;15.20;59.30;;;;;;5054423;28;20439;-45
2021/10/17 10:19:24;;;;;;;23.57;18.97;;;15.30;59.10;;;;;;5053532;28;20442;-45
2021/10/17 10:21:50;;;;;;;22.13;18.90;;;15.40;59.00;;;;;;5054146;28;20487;-45
2021/10/17 10:24:18;;;;;;;23.90;20.87;;;15.60;58.90;;;;;;5053634;28;20193;-44
2021/10/17 10:26:52;;;;;;;22.67;19.83;;;15.70;58.30;;;;;;5048017;28;20193;-45
2021/10/17 10:29:32;;;;;;;23.60;19.70;;;15.80;57.90;;;;;;5045785;28;20469;-45
2021/10/17 10:32:01;;;;;;;24.07;19.77;;;15.90;57.90;;;;;;5052892;28;20516;-46
2021/10/17 10:34:38;;;;;;;21.10;18.77;;;15.80;58.00;;;;;;5053206;28;20921;-44
2021/10/17 10:37:25;;;;;;;21.27;19.03;;;15.90;58.20;;;;;;5053538;28;20439;-45
2021/10/17 10:40:00;;;;;;;23.07;20.67;;;15.90;58.20;;;;;;5053996;28;20784;-46
2021/10/17 10:42:36;;;;;;;24.50;19.83;;;16.00;58.50;;;;;;5053988;28;20453;-45
2021/10/17 10:45:20;;;;;;;22.30;19.90;;;16.10;58.30;;;;;;5053495;28;20487;-44
2021/10/17 10:47:49;;;;;;;22.50;20.20;;;16.00;58.30;;;;;;5053258;28;20438;-44
2021/10/17 10:50:32;;;;;;;22.10;19.80;;;16.10;58.20;;;;;;5053138;28;20478;-45
2021/10/17 10:52:58;;;;;;;21.50;19.13;;;16.10;57.40;;;;;;5053746;28;20434;-46
2021/10/17 10:55:46;;;;;;;24.10;21.27;;;16.10;58.20;;;;;;5051688;28;20423;-45
2021/10/17 10:58:25;;;;;;;23.70;20.90;;;16.10;58.40;;;;;;5053761;28;20197;-45
2021/10/17 11:00:52;;;;;;;25.20;21.60;;;16.30;57.80;;;;;;5052672;28;20505;-44
2021/10/17 11:03:19;;;;;;;23.63;20.87;;;16.30;57.70;;;;;;5053801;28;20438;-46
2021/10/17 11:06:14;;;;;;;23.27;20.87;;;16.40;57.60;;;;;;5052558;28;20470;-45
2021/10/17 11:08:42;;;;;;;23.07;20.77;;;16.30;57.40;;;;;;5051418;28;20530;-45
2021/10/17 11:11:08;;;;;;;23.50;20.40;;;15.90;58.10;;;;;;5053330;28;20577;-46
2021/10/17 11:13:38;;;;;;;23.90;20.87;;;15.70;59.00;;;;;;5053953;28;20447;-45
2021/10/17 11:16:06;;;;;;;25.50;21.30;;;15.70;58.90;;;;;;5040543;28;20953;-45
2021/10/17 11:18:35;;;;;;;24.43;21.57;;;15.70;58.90;;;;;;5048181;28;21324;-45
2021/10/17 11:21:03;;;;;;;24.90;22.20;;;15.60;59.40;;;;;;5052303;28;20490;-45
2021/10/17 11:23:32;;;;;;;24.10;20.77;;;15.80;59.20;;;;;;5050725;28;20442;-45
2021/10/17 11:25:58;;;;;;;25.67;20.90;;;15.90;59.00;;;;;;5049934;28;20442;-46
2021/10/17 11:28:26;;;;;;;21.73;19.40;;;15.90;58.30;;;;;;5050123;28;20446;-45
2021/10/17 11:31:11;;;;;;;22.13;19.53;;;16.00;58.60;;;;;;5052477;28;20432;-48
2021/10/17 11:33:38;;;;;;;23.70;18.67;;;16.00;58.60;;;;;;5051597;28;20866;-46
2021/10/17 11:36:06;;;;;;;21.83;18.40;;;16.10;58.50;;;;;;5065389;28;20875;-43
2021/10/17 11:38:33;;;;;;;20.40;18.20;;;16.20;58.00;;;;;;5051494;28;20438;-45
2021/10/17 11:41:04;;;;;;;21.20;18.00;;;16.10;57.90;;;;;;5052317;28;20489;-45
2021/10/17 11:43:39;;;;;;;19.37;16.97;;;16.10;57.90;;;;;;5048643;28;20470;-48
2021/10/17 11:46:08;;;;;;;22.97;17.63;;;16.30;58.00;;;;;;5049944;28;20435;-45
2021/10/17 11:48:34;;;;;;;19.60;16.53;;;16.30;58.00;;;;;;5045019;28;20966;-44
2021/10/17 11:51:04;;;;;;;16.57;13.37;;;16.20;57.50;;;;;;5048677;28;20462;-46
2021/10/17 11:53:31;;;;;;;20.17;15.00;;;16.40;57.70;;;;;;5049259;28;20188;-45
2021/10/17 11:55:56;;;;;;;11.63;10.43;;;16.70;58.10;;;;;;5046161;28;20443;-45
2021/10/17 11:58:24;;;;;;;18.30;16.40;;;16.90;57.40;;;;;;5046665;28;20445;-45
2021/10/17 12:01:05;;;;;;;17.20;13.50;;;17.10;58.30;;;;;;5052636;28;20228;-45
2021/10/17 12:03:32;;;;;;;11.20;10.10;;;17.40;56.10;;;;;;5039016;28;20449;-46
2021/10/17 12:05:58;;;;;;;19.10;17.10;;;17.60;56.80;;;;;;5051147;28;20842;-44
2021/10/17 12:08:29;;;;;;;18.97;16.13;;;17.70;54.80;;;;;;5051879;28;20484;-44
2021/10/17 12:11:11;;;;;;;21.10;17.53;;;17.60;54.60;;;;;;5050120;28;20204;-44
2021/10/17 12:13:46;;;;;;;18.27;15.67;;;17.60;54.50;;;;;;5048030;28;20430;-45
2021/10/17 12:16:17;;;;;;;16.70;14.90;;;17.50;55.10;;;;;;5047362;28;20431;-46
2021/10/17 12:18:54;;;;;;;20.03;17.97;;;17.50;55.10;;;;;;5045093;28;20443;-48
2021/10/17 12:21:23;;;;;;;13.77;12.37;;;17.30;56.00;;;;;;5049879;28;20647;-45
2021/10/17 12:23:50;;;;;;;17.50;15.57;;;17.20;55.80;;;;;;5048308;28;20435;-44
2021/10/17 12:26:30;;;;;;;19.40;16.50;;;17.40;55.80;;;;;;5039721;28;20439;-44
2021/10/17 12:29:13;;;;;;;18.33;15.60;;;17.30;55.40;;;;;;5050481;28;20431;-45
2021/10/17 12:31:44;;;;;;;18.37;16.07;;;17.30;55.30;;;;;;5051374;28;20482;-44